메인 페이지
METAR-TAF:

METAR-TAF

공항 :

킹 칼리드 국제공항

리야드, 사우디아라비아

위도: 24-56N, 경도: 046-43E, 고도: 614m

현재 날씨관측

예보는 24분 전, 07:00시(UTC)에 발표되었습니다.
북동9kt
온도 39°C
습도 13%
기압 1011 hPa
시정 10km 이상
1500m 미만 상공 구름 및 적란운 없음

METAR: OERK 040700Z 04009KT CAVOK 39/06 Q1011 NOSIG

시각: 10:24 (07:24 UTC)

예보

예보는 8 시간 24분 전, 23:00시(UTC)에 발표되었습니다.
예보 대상 시간: 04일 00시부터 05일 06시까지 (UTC)
여러 방향의 바람 3kt
시정 10km 이상
1500m 미만 상공 구름 및 적란운 없음
전환 중
04일 08시부터 04일 10시까지 (UTC)
서남서12kt
시정: 7000m
고도 4000ft 상공 구름 조금
전환 중
04일 10시부터 04일 12시까지 (UTC)
여러 방향의 바람 3kt

TAF: OERK 032300Z 0400/0506 VRB03KT CAVOK BECMG 0408/0410 24012KT 7000 FEW040 BECMG 0410/0412 VRB03KT

4,000개 이상의 공항 관측 자료 및 예보 (METAR 및 TAF 보고).

지도상에서 검색 가능한 기상관측소가 노란 점과 빨간 점으로 표시되어 있습니다.

기상관측소 명을 보려면 표시 위로 마우스를 이동하세요.

날씨 관측과 예보를 보려면 클릭하세요.

지도 변경 : 확대하려면 엑스 표시가 있는 녹색 버튼, 축소하려면 빼기 표시가 있는 녹색 버튼, 다음 페이지의 지도를 보려면 녹색 화살표를 클릭하세요.


METAR-TAF: